createdAt,value
2023-02-14T00:01:29.359Z,35.60
2023-02-14T00:04:00.773Z,38.33
2023-02-14T00:06:35.516Z,39.13
2023-02-14T00:09:05.758Z,45.37
2023-02-14T00:11:36.112Z,37.97
2023-02-14T00:14:19.194Z,42.70
2023-02-14T00:16:49.181Z,38.00
2023-02-14T00:19:21.160Z,41.23
2023-02-14T00:21:54.255Z,40.60
2023-02-14T00:24:27.282Z,44.67
2023-02-14T00:26:57.509Z,43.47
2023-02-14T00:29:28.879Z,37.83
2023-02-14T00:31:59.164Z,42.77
2023-02-14T00:34:29.837Z,42.77
2023-02-14T00:40:25.576Z,46.85
2023-02-14T00:42:55.609Z,49.20
2023-02-14T00:45:26.118Z,44.47
2023-02-14T00:47:56.111Z,42.03
2023-02-14T00:50:26.045Z,44.80
2023-02-14T00:52:58.587Z,44.43
2023-02-14T00:55:28.609Z,55.17
2023-02-14T00:57:58.526Z,50.50
2023-02-14T01:00:28.874Z,49.67
2023-02-14T01:02:59.180Z,48.57
2023-02-14T01:05:29.117Z,46.63
2023-02-14T01:08:01.770Z,51.33
2023-02-14T01:10:31.752Z,47.07
2023-02-14T01:13:02.071Z,53.20
2023-02-14T01:15:32.581Z,54.80
2023-02-14T01:18:03.414Z,47.83
2023-02-14T01:20:34.366Z,48.50
2023-02-14T01:28:36.421Z,48.03
2023-02-14T01:31:12.241Z,40.57
2023-02-14T01:33:43.662Z,44.20
2023-02-14T01:36:28.180Z,42.03
2023-02-14T01:39:04.589Z,42.27
2023-02-14T01:41:37.058Z,38.87
2023-02-14T01:44:09.717Z,40.20
2023-02-14T01:46:41.041Z,37.60
2023-02-14T01:49:14.818Z,41.87
2023-02-14T01:51:50.880Z,44.75
2023-02-14T01:54:28.567Z,41.43
2023-02-14T01:57:05.358Z,36.23
2023-02-14T01:59:39.762Z,40.70
2023-02-14T02:04:45.958Z,35.20
2023-02-14T02:07:21.875Z,52.90
2023-02-14T02:09:58.103Z,40.20
2023-02-14T02:12:30.714Z,44.30
2023-02-14T02:15:02.669Z,50.03
2023-02-14T02:17:43.305Z,43.67
2023-02-14T02:20:38.002Z,44.87
2023-02-14T02:23:34.554Z,40.63
2023-02-14T02:26:41.310Z,50.40
2023-02-14T02:29:52.300Z,40.20
2023-02-14T02:32:54.286Z,50.13
2023-02-14T02:35:43.283Z,46.37
2023-02-14T02:38:26.356Z,43.40
2023-02-14T02:41:05.749Z,45.80
2023-02-14T02:43:46.084Z,45.87
2023-02-14T02:46:36.355Z,41.20
2023-02-14T02:49:35.966Z,45.10
2023-02-14T02:52:26.534Z,51.63
2023-02-14T02:55:01.708Z,49.23
2023-02-14T02:57:35.858Z,42.10
2023-02-14T03:00:08.778Z,47.90
2023-02-14T03:02:55.826Z,53.03
2023-02-14T03:05:26.369Z,48.63
2023-02-14T03:07:58.911Z,41.97
2023-02-14T03:10:32.870Z,54.17
2023-02-14T03:13:42.123Z,50.77
2023-02-14T03:16:37.144Z,42.53
2023-02-14T03:19:57.110Z,49.00
2023-02-14T03:22:43.749Z,51.43
2023-02-14T03:25:27.340Z,52.80
2023-02-14T03:28:02.332Z,58.40
2023-02-14T03:30:42.035Z,50.17
2023-02-14T03:33:21.243Z,47.23
2023-02-14T03:36:01.999Z,50.87
2023-02-14T03:38:39.679Z,47.00
2023-02-14T03:41:17.755Z,53.03
2023-02-14T03:43:52.202Z,49.13
2023-02-14T03:48:56.194Z,60.73
2023-02-14T03:51:27.379Z,46.47
2023-02-14T03:54:00.581Z,54.10
2023-02-14T03:56:38.892Z,55.20
2023-02-14T03:59:12.979Z,51.53
2023-02-14T04:01:50.081Z,65.68
2023-02-14T04:04:23.874Z,56.17
2023-02-14T04:06:54.299Z,50.88
2023-02-14T04:09:27.282Z,57.10
2023-02-14T04:11:59.942Z,62.70
2023-02-14T04:14:30.382Z,67.87
2023-02-14T04:17:13.187Z,65.03
2023-02-14T04:19:43.169Z,59.20
2023-02-14T04:22:13.463Z,69.33
2023-02-14T04:24:43.654Z,62.67
2023-02-14T04:27:16.271Z,55.50
2023-02-14T04:29:47.955Z,63.50
2023-02-14T04:32:20.696Z,71.50
2023-02-14T04:34:51.144Z,71.83
2023-02-14T04:37:22.715Z,67.97
2023-02-14T04:39:52.874Z,76.23
2023-02-14T04:42:25.429Z,67.37
2023-02-14T04:44:55.666Z,62.70
2023-02-14T04:47:25.926Z,82.10
2023-02-14T04:49:56.131Z,78.67
2023-02-14T04:52:26.097Z,54.00
2023-02-14T04:54:56.315Z,65.77
2023-02-14T04:57:28.747Z,72.90
2023-02-14T04:59:58.979Z,74.33
2023-02-14T05:02:29.221Z,67.57
2023-02-14T05:04:59.437Z,68.27
2023-02-14T05:07:29.641Z,75.87
2023-02-14T05:09:59.866Z,68.30
2023-02-14T05:12:32.448Z,89.00
2023-02-14T05:15:02.342Z,66.37
2023-02-14T05:17:32.654Z,69.33
2023-02-14T05:20:02.855Z,67.33
2023-02-14T05:22:33.169Z,74.57
2023-02-14T05:25:03.345Z,63.70
2023-02-14T05:27:35.867Z,98.20
2023-02-14T05:30:06.192Z,72.60
2023-02-14T05:32:36.495Z,82.77
2023-02-14T05:35:06.733Z,69.43
2023-02-14T05:37:37.021Z,73.33
2023-02-14T05:40:08.389Z,66.80
2023-02-14T05:42:41.204Z,73.23
2023-02-14T05:45:11.952Z,70.97
2023-02-14T05:47:42.448Z,67.33
2023-02-14T05:50:12.986Z,68.33
2023-02-14T05:52:43.296Z,77.43
2023-02-14T05:55:13.687Z,89.57
2023-02-14T05:57:46.238Z,74.00
2023-02-14T06:00:17.641Z,70.37
2023-02-14T06:02:47.912Z,73.50
2023-02-14T06:05:18.396Z,68.83
2023-02-14T06:07:50.609Z,63.80
2023-02-14T06:10:21.292Z,77.50
2023-02-14T06:12:54.920Z,64.90
2023-02-14T06:15:25.009Z,54.67
2023-02-14T06:17:55.893Z,59.80
2023-02-14T06:20:27.672Z,65.83
2023-02-14T06:22:58.081Z,58.10
2023-02-14T06:25:28.601Z,66.33
2023-02-14T06:28:04.014Z,85.40
2023-02-14T06:30:34.399Z,60.03
2023-02-14T06:33:04.685Z,56.60
2023-02-14T06:35:35.093Z,56.70
2023-02-14T06:38:05.351Z,61.07
2023-02-14T06:40:35.512Z,64.33
2023-02-14T06:43:08.253Z,60.40
2023-02-14T06:45:38.508Z,103.80
2023-02-14T06:48:08.917Z,69.20
2023-02-14T06:50:39.111Z,58.33
2023-02-14T06:53:09.385Z,57.70
2023-02-14T06:55:39.670Z,69.23
2023-02-14T06:58:12.170Z,88.97
2023-02-14T07:00:42.748Z,107.53
2023-02-14T07:03:12.960Z,136.40
2023-02-14T07:05:45.218Z,107.97
2023-02-14T07:08:16.119Z,76.53
2023-02-14T07:10:46.270Z,59.10
2023-02-14T07:13:18.832Z,53.77
2023-02-14T07:15:50.440Z,69.13
2023-02-14T07:18:20.781Z,63.80
2023-02-14T07:20:50.945Z,68.53
2023-02-14T07:23:21.155Z,60.07
2023-02-14T07:25:51.536Z,128.33
2023-02-14T07:28:24.229Z,82.53
2023-02-14T07:30:54.620Z,71.30
2023-02-14T07:33:24.930Z,58.03
2023-02-14T07:35:55.112Z,86.30
2023-02-14T07:38:25.325Z,83.17
2023-02-14T07:40:56.691Z,103.07
2023-02-14T07:43:29.654Z,65.17
2023-02-14T07:45:59.939Z,56.37
2023-02-14T07:48:32.495Z,57.20
2023-02-14T07:51:03.953Z,55.97
2023-02-14T07:53:34.135Z,60.27
2023-02-14T07:56:04.339Z,85.73
2023-02-14T07:58:36.951Z,50.20
2023-02-14T08:01:07.268Z,56.67
2023-02-14T08:03:37.638Z,58.90
2023-02-14T08:06:08.092Z,60.03
2023-02-14T08:08:38.384Z,57.77
2023-02-14T08:11:08.549Z,54.97
2023-02-14T08:13:41.237Z,63.93
2023-02-14T08:16:12.647Z,46.70
2023-02-14T08:18:45.420Z,45.77
2023-02-14T08:21:17.233Z,48.33
2023-02-14T08:23:47.670Z,50.80
2023-02-14T08:26:17.674Z,43.13
2023-02-14T08:28:50.201Z,46.40
2023-02-14T08:31:34.793Z,56.90
2023-02-14T08:34:06.077Z,46.77
2023-02-14T08:36:36.158Z,43.10
2023-02-14T08:39:07.022Z,50.73
2023-02-14T08:41:37.259Z,38.67
2023-02-14T08:44:09.725Z,48.47
2023-02-14T08:46:39.674Z,61.30
2023-02-14T08:49:09.694Z,49.40
2023-02-14T08:51:39.702Z,44.47
2023-02-14T08:54:09.776Z,48.53
2023-02-14T08:56:40.671Z,45.50
2023-02-14T08:59:13.160Z,38.80
2023-02-14T09:01:43.088Z,47.20
2023-02-14T09:04:13.221Z,44.20
2023-02-14T09:06:43.355Z,42.63
2023-02-14T09:09:13.435Z,38.57
2023-02-14T09:11:43.586Z,34.40
2023-02-14T09:14:16.180Z,44.40
2023-02-14T09:16:46.264Z,43.13
2023-02-14T09:19:16.273Z,49.83
2023-02-14T09:21:46.542Z,45.37
2023-02-14T09:24:16.484Z,48.00
2023-02-14T09:26:46.365Z,37.40
2023-02-14T09:29:18.872Z,40.77
2023-02-14T09:31:48.847Z,49.20
2023-02-14T09:34:18.878Z,46.30
2023-02-14T09:37:01.245Z,49.60
2023-02-14T09:39:31.269Z,59.47
2023-02-14T09:42:21.198Z,51.40
2023-02-14T09:44:57.485Z,46.87
2023-02-14T09:47:43.176Z,49.60
2023-02-14T09:50:20.606Z,52.63
2023-02-14T09:52:54.244Z,44.27
2023-02-14T09:55:24.455Z,48.10
2023-02-14T09:58:08.544Z,46.43
2023-02-14T10:00:48.433Z,42.55
2023-02-14T10:03:43.519Z,43.57
2023-02-14T10:06:26.994Z,43.45
2023-02-14T10:09:05.173Z,44.37
2023-02-14T10:11:35.509Z,40.57
2023-02-14T10:14:13.802Z,44.20
2023-02-14T10:16:49.992Z,36.57
2023-02-14T10:19:24.696Z,43.03
2023-02-14T10:21:58.124Z,37.77
2023-02-14T10:24:32.733Z,41.33
2023-02-14T10:27:11.331Z,39.33
2023-02-14T10:29:42.017Z,39.57
2023-02-14T10:32:18.045Z,42.37
2023-02-14T10:34:50.855Z,37.70
2023-02-14T10:37:30.488Z,39.47
2023-02-14T10:40:17.382Z,38.80
2023-02-14T10:42:58.762Z,36.60
2023-02-14T10:45:37.184Z,43.97
2023-02-14T10:48:18.952Z,35.20
2023-02-14T10:50:59.634Z,36.73
2023-02-14T10:53:41.366Z,44.30
2023-02-14T10:56:20.007Z,38.97
2023-02-14T10:58:53.885Z,40.07
2023-02-14T11:01:24.401Z,34.42
2023-02-14T11:04:04.217Z,35.27
2023-02-14T11:06:34.596Z,35.73
2023-02-14T11:09:04.511Z,37.03
2023-02-14T11:11:40.377Z,32.73
2023-02-14T11:14:26.759Z,35.83
2023-02-14T11:16:57.785Z,36.43
2023-02-14T11:19:34.110Z,27.33
2023-02-14T11:22:05.387Z,30.43
2023-02-14T11:24:38.268Z,34.17
2023-02-14T11:27:18.520Z,31.97
2023-02-14T11:29:53.122Z,39.17
2023-02-14T11:32:25.374Z,30.03
2023-02-14T11:35:02.822Z,27.85
2023-02-14T11:37:35.326Z,31.87
2023-02-14T11:40:06.183Z,31.23
2023-02-14T11:42:41.445Z,29.65
2023-02-14T11:45:30.618Z,27.23
2023-02-14T11:48:19.980Z,24.70
2023-02-14T11:51:04.969Z,28.02
2023-02-14T11:53:46.346Z,29.00
2023-02-14T11:56:17.644Z,22.70
2023-02-14T11:58:53.506Z,24.80
2023-02-14T12:01:27.501Z,26.93
2023-02-14T12:04:01.050Z,29.77
2023-02-14T12:06:36.636Z,29.52
2023-02-14T12:09:26.873Z,25.13
2023-02-14T12:12:00.710Z,23.57
2023-02-14T12:14:32.837Z,27.10
2023-02-14T12:17:10.065Z,28.10
2023-02-14T12:19:47.446Z,22.60
2023-02-14T12:22:23.164Z,24.20
2023-02-14T12:24:59.968Z,24.42
2023-02-14T12:27:35.370Z,27.33
2023-02-14T12:30:08.876Z,27.90
2023-02-14T12:32:38.939Z,26.90
2023-02-14T12:35:17.908Z,21.30
2023-02-14T12:38:04.676Z,19.83
2023-02-14T12:40:48.059Z,21.33
2023-02-14T12:43:53.859Z,24.50
2023-02-14T12:46:45.476Z,23.23
2023-02-14T12:49:29.042Z,25.73
2023-02-14T12:52:09.162Z,21.92
2023-02-14T12:54:57.261Z,22.42
2023-02-14T12:57:40.222Z,21.13
2023-02-14T13:00:23.243Z,22.35
2023-02-14T13:03:13.451Z,20.85
2023-02-14T13:06:01.879Z,19.67
2023-02-14T13:08:49.588Z,22.42
2023-02-14T13:11:35.341Z,19.15
2023-02-14T13:14:17.300Z,22.45
2023-02-14T13:16:53.260Z,17.73
2023-02-14T13:19:36.949Z,15.38
2023-02-14T13:22:09.536Z,14.23
2023-02-14T13:24:44.311Z,16.25
2023-02-14T13:27:23.062Z,16.98
2023-02-14T13:29:55.785Z,17.60
2023-02-14T13:32:31.609Z,14.35
2023-02-14T13:35:02.345Z,13.10
2023-02-14T13:37:33.478Z,13.88
2023-02-14T13:40:06.896Z,10.20
2023-02-14T13:42:58.190Z,13.93
2023-02-14T13:45:56.423Z,13.02
2023-02-14T13:48:28.584Z,14.75
2023-02-14T13:51:01.023Z,14.40
2023-02-14T13:53:43.419Z,14.98
2023-02-14T13:56:43.162Z,13.93
2023-02-14T13:59:29.145Z,11.20
2023-02-14T14:02:19.378Z,11.85
2023-02-14T14:04:49.288Z,12.23
2023-02-14T14:07:22.192Z,11.80
2023-02-14T14:10:03.284Z,13.43
2023-02-14T14:12:46.829Z,10.23
2023-02-14T14:15:23.581Z,12.32
2023-02-14T14:18:26.060Z,12.15
2023-02-14T14:20:56.354Z,12.15
2023-02-14T14:23:38.602Z,12.30
2023-02-14T14:26:39.738Z,10.98
2023-02-14T14:29:15.159Z,10.35
2023-02-14T14:31:51.331Z,10.65
2023-02-14T14:34:25.250Z,11.80
2023-02-14T14:37:05.475Z,13.55
2023-02-14T14:39:39.985Z,9.00
2023-02-14T14:42:12.566Z,12.90
2023-02-14T14:44:49.857Z,11.55
2023-02-14T14:47:25.858Z,13.60
2023-02-14T14:49:57.277Z,9.60
2023-02-14T14:52:37.937Z,10.15
2023-02-14T14:55:10.672Z,13.65
2023-02-14T14:57:41.538Z,11.40
2023-02-14T15:00:22.756Z,11.77
2023-02-14T15:03:07.839Z,11.60
2023-02-14T15:05:40.718Z,10.77
2023-02-14T15:08:18.557Z,11.50
2023-02-14T15:10:53.838Z,11.27
2023-02-14T15:13:41.616Z,10.40
2023-02-14T15:16:11.866Z,12.35
2023-02-14T15:18:45.243Z,14.25
2023-02-14T15:21:16.765Z,10.90
2023-02-14T15:23:48.118Z,11.75
2023-02-14T15:26:28.704Z,10.23
2023-02-14T15:29:00.530Z,11.32
2023-02-14T15:31:37.300Z,10.90
2023-02-14T15:34:10.703Z,14.00
2023-02-14T15:36:40.990Z,13.00
2023-02-14T15:39:13.618Z,14.30
2023-02-14T15:41:47.439Z,15.63
2023-02-14T15:44:27.964Z,11.00
2023-02-14T15:46:59.961Z,12.88
2023-02-14T15:49:36.109Z,15.00
2023-02-14T15:52:08.376Z,16.90
2023-02-14T15:54:41.964Z,15.65
2023-02-14T15:57:26.310Z,13.35
2023-02-14T15:59:56.854Z,16.95
2023-02-14T16:02:36.023Z,28.33
2023-02-14T16:05:18.046Z,40.63
2023-02-14T16:08:03.667Z,21.98
2023-02-14T16:10:35.637Z,29.33
2023-02-14T16:13:09.344Z,17.10
2023-02-14T16:15:42.567Z,19.05
2023-02-14T16:18:21.413Z,12.40
2023-02-14T16:20:53.902Z,14.93
2023-02-14T16:23:26.873Z,13.50
2023-02-14T16:25:58.092Z,13.90
2023-02-14T16:28:32.070Z,12.98
2023-02-14T16:31:05.948Z,12.20
2023-02-14T16:33:38.246Z,14.27
2023-02-14T16:36:18.516Z,12.73
2023-02-14T16:38:50.063Z,15.23
2023-02-14T16:41:22.209Z,15.63
2023-02-14T16:43:53.254Z,14.88
2023-02-14T16:46:25.632Z,14.75
2023-02-14T16:48:55.717Z,12.73
2023-02-14T16:51:30.955Z,12.88
2023-02-14T16:54:02.635Z,12.38
2023-02-14T16:56:39.376Z,13.68
2023-02-14T16:59:09.286Z,13.10
2023-02-14T17:01:39.492Z,11.77
2023-02-14T17:04:10.186Z,13.17
2023-02-14T17:06:48.223Z,14.37
2023-02-14T17:09:22.955Z,14.47
2023-02-14T17:11:55.468Z,13.57
2023-02-14T17:14:30.887Z,14.07
2023-02-14T17:17:01.628Z,16.77
2023-02-14T17:19:31.763Z,14.27
2023-02-14T17:22:04.555Z,17.90
2023-02-14T17:24:34.806Z,14.53
2023-02-14T17:27:04.886Z,15.57
2023-02-14T17:29:34.784Z,16.87
2023-02-14T17:32:04.904Z,16.37
2023-02-14T17:34:35.203Z,16.63
2023-02-14T17:37:08.004Z,15.53
2023-02-14T17:39:38.184Z,19.20
2023-02-14T17:42:11.688Z,29.07
2023-02-14T17:44:41.969Z,48.50
2023-02-14T17:47:11.934Z,35.97
2023-02-14T17:49:41.888Z,27.43
2023-02-14T17:52:14.412Z,25.10
2023-02-14T17:54:44.933Z,19.30
2023-02-14T17:57:15.467Z,19.00
2023-02-14T17:59:46.829Z,20.43
2023-02-14T18:02:16.828Z,17.07
2023-02-14T18:04:48.357Z,17.43
2023-02-14T18:07:20.933Z,15.37
2023-02-14T18:09:50.943Z,14.47
2023-02-14T18:12:20.914Z,17.37
2023-02-14T18:14:53.306Z,19.13
2023-02-14T18:17:23.224Z,18.10
2023-02-14T18:19:53.108Z,18.10
2023-02-14T18:22:25.598Z,20.93
2023-02-14T18:24:58.663Z,21.27
2023-02-14T18:27:28.876Z,20.40
2023-02-14T18:29:59.265Z,14.50
2023-02-14T18:32:29.232Z,16.13
2023-02-14T18:34:59.139Z,17.60
2023-02-14T18:37:31.712Z,16.83
2023-02-14T18:40:01.793Z,24.23
2023-02-14T18:42:31.752Z,19.10
2023-02-14T18:45:01.673Z,17.80
2023-02-14T18:47:31.864Z,21.73
2023-02-14T18:50:01.849Z,21.77
2023-02-14T18:52:34.456Z,19.47
2023-02-14T18:55:04.679Z,19.33
2023-02-14T18:57:36.601Z,20.27
2023-02-14T19:00:12.012Z,18.53
2023-02-14T19:02:42.246Z,19.60
2023-02-14T19:05:12.926Z,27.53
2023-02-14T19:07:46.229Z,18.03
2023-02-14T19:10:16.378Z,22.57
2023-02-14T19:12:46.840Z,26.87
2023-02-14T19:15:17.564Z,22.10
2023-02-14T19:17:47.672Z,32.80
2023-02-14T19:20:18.441Z,19.40
2023-02-14T19:22:51.071Z,27.77
2023-02-14T19:25:21.273Z,25.00
2023-02-14T19:27:51.741Z,20.90
2023-02-14T19:30:22.102Z,49.57
2023-02-14T19:32:52.031Z,27.40
2023-02-14T19:35:21.956Z,23.30
2023-02-14T19:37:56.718Z,24.53
2023-02-14T19:40:26.689Z,25.23
2023-02-14T19:42:56.610Z,24.03
2023-02-14T19:45:27.416Z,31.63
2023-02-14T19:47:59.300Z,19.87
2023-02-14T19:50:30.841Z,55.37
2023-02-14T19:53:04.852Z,31.63
2023-02-14T19:55:34.904Z,38.97
2023-02-14T19:58:04.894Z,41.27
2023-02-14T20:00:37.075Z,43.37
2023-02-14T20:03:07.291Z,39.97
2023-02-14T20:05:40.494Z,22.10
2023-02-14T20:08:13.088Z,29.50
2023-02-14T20:10:43.233Z,34.37
2023-02-14T20:13:13.473Z,37.83
2023-02-14T20:15:45.273Z,34.43
2023-02-14T20:18:15.212Z,28.40
2023-02-14T20:21:02.046Z,61.67
2023-02-14T20:23:36.042Z,29.53
2023-02-14T20:26:06.363Z,48.92
2023-02-14T20:28:36.687Z,50.30
2023-02-14T20:31:09.503Z,54.67
2023-02-14T20:33:39.885Z,44.07
2023-02-14T20:36:11.156Z,86.80
2023-02-14T20:38:43.931Z,44.53
2023-02-14T20:41:16.474Z,49.20
2023-02-14T20:43:46.733Z,73.03
2023-02-14T20:46:17.135Z,81.63
2023-02-14T20:48:47.379Z,48.87
2023-02-14T20:51:18.424Z,16.33
2023-02-14T20:53:51.525Z,88.33
2023-02-14T20:56:22.738Z,72.80
2023-02-14T20:58:53.375Z,54.53
2023-02-14T21:01:25.606Z,46.87
2023-02-14T21:03:56.481Z,50.27
2023-02-14T21:06:29.008Z,83.80
2023-02-14T21:09:02.198Z,39.07
2023-02-14T21:11:32.718Z,53.93
2023-02-14T21:14:03.823Z,28.03
2023-02-14T21:16:34.165Z,25.40
2023-02-14T21:19:04.823Z,51.03
2023-02-14T21:21:36.312Z,42.43
2023-02-14T21:24:11.081Z,33.37
2023-02-14T21:26:41.488Z,31.43
2023-02-14T21:29:11.863Z,74.03
2023-02-14T21:31:43.112Z,51.80
2023-02-14T21:34:13.404Z,49.13
2023-02-14T21:36:43.649Z,55.17
2023-02-14T21:39:16.701Z,56.77
2023-02-14T21:41:46.851Z,63.83
2023-02-14T21:44:41.162Z,24.60
2023-02-14T21:47:11.374Z,25.77
2023-02-14T21:49:54.034Z,43.27
2023-02-14T21:52:24.329Z,38.63
2023-02-14T21:54:57.311Z,33.93
2023-02-14T21:57:27.632Z,63.20
2023-02-14T21:59:57.851Z,21.03
2023-02-14T22:02:28.189Z,66.60
2023-02-14T22:04:58.474Z,29.47
2023-02-14T22:07:30.868Z,21.13
2023-02-14T22:10:03.730Z,56.77
2023-02-14T22:12:33.973Z,17.97
2023-02-14T22:15:04.381Z,17.83
2023-02-14T22:17:35.720Z,24.83
2023-02-14T22:20:06.112Z,47.50
2023-02-14T22:22:36.596Z,25.63
2023-02-14T22:25:09.674Z,28.40
2023-02-14T22:27:41.772Z,38.03
2023-02-14T22:30:12.456Z,30.63
2023-02-14T22:32:42.716Z,14.50
2023-02-14T22:35:12.898Z,21.67
2023-02-14T22:37:43.114Z,16.00
2023-02-14T22:40:16.115Z,31.03
2023-02-14T22:42:46.474Z,16.90
2023-02-14T22:45:16.701Z,16.33
2023-02-14T22:47:46.894Z,16.10
2023-02-14T22:50:17.156Z,17.37
2023-02-14T22:52:47.410Z,15.33
2023-02-14T22:55:20.162Z,16.93
2023-02-14T22:57:50.372Z,37.03
2023-02-14T23:00:20.713Z,35.30
2023-02-14T23:02:50.981Z,44.03
2023-02-14T23:05:21.292Z,55.37
2023-02-14T23:07:51.464Z,46.83
2023-02-14T23:10:24.365Z,33.97
2023-02-14T23:13:06.997Z,36.40
2023-02-14T23:15:49.669Z,23.67
2023-02-14T23:18:32.321Z,42.50
2023-02-14T23:21:14.705Z,33.80
2023-02-14T23:23:44.941Z,29.30
2023-02-14T23:26:22.109Z,40.40
2023-02-14T23:28:52.366Z,30.90
2023-02-14T23:31:22.694Z,37.73
2023-02-14T23:33:53.897Z,49.60
2023-02-14T23:36:24.169Z,24.90
2023-02-14T23:38:54.339Z,19.83
2023-02-14T23:41:39.601Z,60.77
2023-02-14T23:44:10.136Z,116.33
2023-02-14T23:46:40.361Z,26.37
2023-02-14T23:49:10.521Z,34.20
2023-02-14T23:51:40.909Z,27.20
2023-02-14T23:54:11.452Z,25.97
2023-02-14T23:56:45.376Z,30.07
2023-02-14T23:59:16.043Z,22.13
